Time;durP1;ratioP1;P1;durP2;ratioP2;P2;SDS_P1;SDS_P2;PMS_P1;PMS_P2;Temp;Humidity;BMP_temperature;BMP_pressure;BME280_temperature;BME280_humidity;BME280_pressure;Samples;Min_cycle;Max_cycle;Signal;HPM_P1;HPM_P2
2023/12/10 00:00:23;;;;;;;14.83;14.07;;;11.70;99.90;;;;;;5075553;28;20203;-62
2023/12/10 00:02:49;;;;;;;14.87;14.17;;;11.80;99.90;;;;;;5075385;28;20246;-62
2023/12/10 00:05:16;;;;;;;13.23;12.63;;;11.80;99.90;;;;;;5074755;28;20195;-61
2023/12/10 00:07:43;;;;;;;14.53;13.83;;;11.80;99.90;;;;;;5075106;28;20227;-63
2023/12/10 00:10:10;;;;;;;14.03;13.33;;;11.80;99.90;;;;;;5072807;28;20206;-62
2023/12/10 00:12:40;;;;;;;13.77;13.07;;;11.80;99.90;;;;;;5073043;28;20301;-62
2023/12/10 00:15:08;;;;;;;14.43;13.60;;;11.80;99.90;;;;;;5073382;28;20218;-62
2023/12/10 00:17:35;;;;;;;14.30;13.60;;;11.80;99.90;;;;;;5075386;28;20235;-62
2023/12/10 00:20:03;;;;;;;13.70;13.10;;;11.70;99.90;;;;;;5077047;28;20242;-62
2023/12/10 00:22:30;;;;;;;13.20;12.53;;;11.70;99.90;;;;;;5076836;28;20203;-61
2023/12/10 00:24:57;;;;;;;13.37;12.77;;;11.70;99.90;;;;;;5074702;28;20207;-63
2023/12/10 00:27:24;;;;;;;13.43;12.83;;;11.80;99.90;;;;;;5072764;28;20727;-62
2023/12/10 00:29:52;;;;;;;12.93;12.33;;;11.80;99.90;;;;;;5073026;28;20229;-62
2023/12/10 00:32:19;;;;;;;13.57;12.97;;;11.80;99.90;;;;;;5075523;28;20286;-61
2023/12/10 00:34:46;;;;;;;13.50;12.90;;;11.80;99.90;;;;;;5073111;28;20245;-61
2023/12/10 00:37:13;;;;;;;13.90;13.20;;;11.80;99.90;;;;;;5072511;28;20946;-61
2023/12/10 00:39:39;;;;;;;12.67;12.17;;;11.80;99.90;;;;;;5072477;28;20577;-62
2023/12/10 00:42:07;;;;;;;13.33;12.73;;;11.70;99.90;;;;;;5072398;28;20199;-63
2023/12/10 00:44:33;;;;;;;14.10;13.50;;;11.70;99.90;;;;;;5072146;28;20284;-63
2023/12/10 00:47:02;;;;;;;14.03;13.43;;;11.70;99.90;;;;;;5071881;28;20245;-62
2023/12/10 00:49:28;;;;;;;13.60;12.97;;;11.70;99.90;;;;;;5070700;28;20590;-62
2023/12/10 00:51:55;;;;;;;13.60;12.90;;;11.70;99.90;;;;;;5072176;28;20302;-64
2023/12/10 00:54:22;;;;;;;13.57;12.97;;;11.70;99.90;;;;;;5072245;28;20225;-62
2023/12/10 00:56:49;;;;;;;14.60;13.77;;;11.60;99.90;;;;;;5072002;28;20227;-61
2023/12/10 00:59:16;;;;;;;13.27;12.67;;;11.60;99.90;;;;;;5071760;28;20203;-64
2023/12/10 01:01:43;;;;;;;13.73;13.13;;;11.60;99.90;;;;;;5075941;28;20696;-64
2023/12/10 01:04:11;;;;;;;14.20;13.40;;;11.60;99.90;;;;;;5071685;28;20226;-63
2023/12/10 01:06:38;;;;;;;14.27;13.60;;;11.60;99.90;;;;;;5076368;28;20221;-62
2023/12/10 01:09:05;;;;;;;12.70;12.20;;;11.60;99.90;;;;;;5073056;28;20215;-62
2023/12/10 01:11:31;;;;;;;12.40;11.90;;;11.60;99.90;;;;;;5075191;28;20788;-61
2023/12/10 01:14:02;;;;;;;14.57;13.87;;;11.60;99.90;;;;;;5077221;28;20215;-63
2023/12/10 01:16:30;;;;;;;13.80;13.20;;;11.60;99.90;;;;;;5075429;28;20227;-61
2023/12/10 01:18:57;;;;;;;13.07;12.53;;;11.50;99.90;;;;;;5075663;28;20195;-62
2023/12/10 01:21:25;;;;;;;13.53;12.87;;;11.50;99.90;;;;;;5075382;28;20195;-63
2023/12/10 01:23:54;;;;;;;12.80;12.30;;;11.50;99.90;;;;;;5075868;28;20207;-61
2023/12/10 01:26:21;;;;;;;13.70;13.07;;;11.50;99.90;;;;;;5075474;28;20898;-63
2023/12/10 01:28:48;;;;;;;12.70;12.13;;;11.50;99.90;;;;;;5075390;28;20207;-62
2023/12/10 01:31:15;;;;;;;13.57;12.97;;;11.50;99.90;;;;;;5074991;28;20205;-62
2023/12/10 01:33:42;;;;;;;14.37;13.77;;;11.50;99.90;;;;;;5075728;28;20260;-64
2023/12/10 01:36:09;;;;;;;13.90;13.27;;;11.50;99.90;;;;;;5074639;28;20224;-62
2023/12/10 01:38:37;;;;;;;13.40;12.80;;;11.40;99.90;;;;;;5075678;28;20211;-63
2023/12/10 01:41:10;;;;;;;14.73;14.03;;;11.40;99.90;;;;;;5073689;28;20209;-63
2023/12/10 01:43:37;;;;;;;15.13;14.53;;;11.40;99.90;;;;;;5075385;28;20203;-63
2023/12/10 01:46:04;;;;;;;15.17;14.43;;;11.40;99.90;;;;;;5075216;28;20219;-64
2023/12/10 01:48:31;;;;;;;14.30;13.70;;;11.30;99.90;;;;;;5074624;28;20203;-62
2023/12/10 01:50:59;;;;;;;14.43;13.73;;;11.30;99.90;;;;;;5075823;28;20282;-62
2023/12/10 01:53:26;;;;;;;13.97;13.37;;;11.20;99.90;;;;;;5075409;28;20211;-63
2023/12/10 01:55:54;;;;;;;15.13;14.43;;;11.30;99.90;;;;;;5077370;28;20249;-64
2023/12/10 01:58:21;;;;;;;15.10;14.30;;;11.30;99.90;;;;;;5078994;28;20235;-62
2023/12/10 02:00:48;;;;;;;14.70;14.10;;;11.40;99.90;;;;;;5075584;28;20688;-62
2023/12/10 02:03:15;;;;;;;14.73;14.13;;;11.30;99.90;;;;;;5074669;28;20200;-62
2023/12/10 02:05:42;;;;;;;15.37;14.77;;;11.20;99.90;;;;;;5075165;28;20286;-62
2023/12/10 02:08:10;;;;;;;14.23;13.63;;;11.10;99.90;;;;;;5075076;28;20272;-61
2023/12/10 02:10:36;;;;;;;15.73;15.07;;;11.10;99.90;;;;;;5075022;28;20612;-62
2023/12/10 02:13:05;;;;;;;15.40;14.80;;;11.10;99.90;;;;;;5074514;28;20196;-62
2023/12/10 02:15:32;;;;;;;14.27;13.67;;;11.10;99.90;;;;;;5074492;28;20270;-64
2023/12/10 02:17:59;;;;;;;14.43;13.83;;;11.00;99.90;;;;;;5074951;28;20759;-62
2023/12/10 02:20:26;;;;;;;14.40;13.70;;;11.00;99.90;;;;;;5072771;28;20195;-62
2023/12/10 02:22:58;;;;;;;15.70;15.03;;;11.00;99.90;;;;;;5073658;28;20205;-63
2023/12/10 02:25:34;;;;;;;13.60;13.10;;;11.00;99.90;;;;;;5072880;28;20226;-63
2023/12/10 02:28:02;;;;;;;15.47;14.77;;;11.00;99.90;;;;;;5073353;28;20237;-63
2023/12/10 02:30:30;;;;;;;14.27;13.67;;;11.00;99.90;;;;;;5073307;28;20583;-61
2023/12/10 02:32:57;;;;;;;14.87;14.17;;;11.00;99.90;;;;;;5073673;28;20216;-64
2023/12/10 02:35:23;;;;;;;14.57;13.97;;;11.00;99.90;;;;;;5073193;28;20711;-61
2023/12/10 02:37:50;;;;;;;15.57;14.87;;;11.10;99.90;;;;;;5073657;28;20239;-63
2023/12/10 02:40:18;;;;;;;15.50;14.80;;;11.10;99.90;;;;;;5072297;28;20207;-63
2023/12/10 02:42:46;;;;;;;13.00;12.50;;;11.00;99.90;;;;;;5073306;28;20218;-63
2023/12/10 02:45:13;;;;;;;15.13;14.43;;;11.10;99.90;;;;;;5073264;28;20214;-63
2023/12/10 02:47:40;;;;;;;13.87;13.27;;;11.10;99.90;;;;;;5073127;28;20223;-62
2023/12/10 02:50:08;;;;;;;14.27;13.47;;;11.10;99.90;;;;;;5072963;28;20207;-64
2023/12/10 02:52:36;;;;;;;13.30;12.70;;;11.10;99.90;;;;;;5076070;28;20278;-64
2023/12/10 02:55:03;;;;;;;13.33;12.83;;;11.10;99.90;;;;;;5082458;28;20215;-63
2023/12/10 02:57:30;;;;;;;14.37;13.77;;;11.10;99.90;;;;;;5081101;28;20226;-63
2023/12/10 02:59:58;;;;;;;13.87;13.27;;;11.10;99.90;;;;;;5079447;28;20317;-63
2023/12/10 03:02:25;;;;;;;13.90;13.30;;;11.00;99.90;;;;;;5079610;28;20218;-64
2023/12/10 03:04:52;;;;;;;13.57;12.97;;;11.00;99.90;;;;;;5079590;28;20275;-63
2023/12/10 03:07:19;;;;;;;12.13;11.53;;;11.00;99.90;;;;;;5074699;28;20227;-63
2023/12/10 03:09:46;;;;;;;12.73;12.13;;;11.00;99.90;;;;;;5072488;28;20585;-63
2023/12/10 03:12:13;;;;;;;12.13;11.60;;;11.00;99.90;;;;;;5072734;28;20204;-63
2023/12/10 03:14:40;;;;;;;12.10;11.60;;;11.00;99.90;;;;;;5072492;28;20234;-62
2023/12/10 03:17:08;;;;;;;11.10;10.70;;;11.00;99.90;;;;;;5072436;28;20230;-62
2023/12/10 03:19:37;;;;;;;11.50;11.10;;;11.00;99.90;;;;;;5072262;28;20218;-63
2023/12/10 03:22:04;;;;;;;12.67;12.07;;;11.00;99.90;;;;;;5072594;28;20276;-62
2023/12/10 03:24:31;;;;;;;14.00;13.40;;;11.00;99.90;;;;;;5072484;28;20203;-63
2023/12/10 03:26:58;;;;;;;12.80;12.20;;;11.00;99.90;;;;;;5071674;28;20226;-64
2023/12/10 03:29:25;;;;;;;12.73;12.23;;;11.00;99.90;;;;;;5071912;28;20400;-62
2023/12/10 03:31:51;;;;;;;12.30;11.80;;;11.00;99.90;;;;;;5073236;28;20210;-62
2023/12/10 03:34:19;;;;;;;12.87;12.37;;;11.00;99.90;;;;;;5072889;28;20207;-63
2023/12/10 03:36:46;;;;;;;12.47;11.97;;;11.00;99.90;;;;;;5072690;28;20237;-63
2023/12/10 03:39:13;;;;;;;12.43;11.93;;;11.00;99.90;;;;;;5072159;28;20557;-62
2023/12/10 03:41:40;;;;;;;13.70;13.07;;;11.00;99.90;;;;;;5072066;28;20203;-62
2023/12/10 03:44:06;;;;;;;13.10;12.50;;;11.00;99.90;;;;;;5072758;28;20207;-62
2023/12/10 03:46:33;;;;;;;13.67;13.07;;;11.00;99.90;;;;;;5072252;28;20223;-63
2023/12/10 03:49:00;;;;;;;13.30;12.70;;;11.00;99.90;;;;;;5071771;28;20207;-63
2023/12/10 03:51:28;;;;;;;13.40;12.83;;;10.90;99.90;;;;;;5072092;28;20696;-63
2023/12/10 03:53:55;;;;;;;13.47;12.83;;;10.90;99.90;;;;;;5068392;28;20234;-62
2023/12/10 03:56:22;;;;;;;13.00;12.40;;;10.90;99.90;;;;;;5067953;28;20254;-63
2023/12/10 03:58:49;;;;;;;12.87;12.27;;;10.90;99.90;;;;;;5072474;28;20678;-62
2023/12/10 04:01:15;;;;;;;12.67;12.17;;;10.90;99.90;;;;;;5072166;28;20216;-62
2023/12/10 04:03:42;;;;;;;12.67;12.17;;;10.90;99.90;;;;;;5072638;28;20215;-63
2023/12/10 04:06:09;;;;;;;12.27;11.77;;;10.90;99.90;;;;;;5072774;28;20223;-63
2023/12/10 04:08:38;;;;;;;12.97;12.37;;;10.90;99.90;;;;;;5073371;28;20239;-62
2023/12/10 04:11:05;;;;;;;12.67;12.07;;;10.90;99.90;;;;;;5073150;28;20219;-62
2023/12/10 04:13:32;;;;;;;12.30;11.80;;;10.90;99.90;;;;;;5074181;28;20289;-63
2023/12/10 04:16:00;;;;;;;12.40;11.80;;;10.90;99.90;;;;;;5073493;28;20223;-62
2023/12/10 04:18:27;;;;;;;12.23;11.63;;;10.90;99.90;;;;;;5073508;28;20226;-64
2023/12/10 04:20:54;;;;;;;12.23;11.73;;;10.80;99.90;;;;;;5073114;28;20204;-63
2023/12/10 04:23:21;;;;;;;12.00;11.50;;;10.90;99.90;;;;;;5073784;28;20223;-63
2023/12/10 04:25:49;;;;;;;12.63;12.07;;;10.90;99.90;;;;;;5073432;28;20207;-62
2023/12/10 04:28:16;;;;;;;12.30;11.80;;;10.90;99.90;;;;;;5073427;28;20203;-63
2023/12/10 04:30:43;;;;;;;12.63;12.03;;;10.80;99.90;;;;;;5072915;28;20217;-64
2023/12/10 04:33:10;;;;;;;12.53;11.93;;;10.80;99.90;;;;;;5073024;28;20553;-64
2023/12/10 04:35:36;;;;;;;12.73;12.13;;;10.80;99.90;;;;;;5073097;28;20207;-63
2023/12/10 04:38:03;;;;;;;12.83;12.23;;;10.80;99.90;;;;;;5072535;28;20238;-63
2023/12/10 04:40:30;;;;;;;12.87;12.27;;;10.80;99.90;;;;;;5071707;28;20207;-62
2023/12/10 04:42:58;;;;;;;13.33;12.63;;;10.80;99.90;;;;;;5072216;28;20657;-64
2023/12/10 04:45:25;;;;;;;12.47;11.90;;;10.80;99.90;;;;;;5073094;28;20213;-62
2023/12/10 04:47:52;;;;;;;12.17;11.67;;;10.80;99.90;;;;;;5072777;28;20223;-63
2023/12/10 04:50:19;;;;;;;12.33;11.83;;;10.80;99.90;;;;;;5072302;28;20211;-63
2023/12/10 04:52:46;;;;;;;12.40;11.90;;;10.80;99.90;;;;;;5072700;28;20225;-63
2023/12/10 04:55:13;;;;;;;12.60;12.03;;;10.80;99.90;;;;;;5072867;28;20203;-62
2023/12/10 04:57:39;;;;;;;12.57;12.07;;;10.80;99.90;;;;;;5072332;28;20233;-63
2023/12/10 05:00:09;;;;;;;12.83;12.33;;;10.80;99.90;;;;;;5072851;28;20211;-63
2023/12/10 05:02:36;;;;;;;12.27;11.77;;;10.80;99.90;;;;;;5072361;28;20221;-62
2023/12/10 05:05:03;;;;;;;12.13;11.63;;;10.80;99.90;;;;;;5072121;28;20585;-63
2023/12/10 05:07:29;;;;;;;12.10;11.70;;;10.80;99.90;;;;;;5072976;28;20230;-62
2023/12/10 05:09:57;;;;;;;13.20;12.60;;;10.80;99.90;;;;;;5076313;28;20294;-62
2023/12/10 05:12:24;;;;;;;13.13;12.43;;;10.80;99.90;;;;;;5076584;28;20250;-63
2023/12/10 05:14:50;;;;;;;12.57;12.07;;;10.80;99.90;;;;;;5076699;28;20293;-63
2023/12/10 05:17:19;;;;;;;12.57;11.97;;;10.80;99.90;;;;;;5072987;28;20226;-63
2023/12/10 05:19:45;;;;;;;12.73;12.23;;;10.80;99.90;;;;;;5072509;28;20222;-63
2023/12/10 05:22:12;;;;;;;11.87;11.37;;;10.80;99.90;;;;;;5072273;28;20298;-63
2023/12/10 05:24:40;;;;;;;12.30;11.80;;;10.80;99.90;;;;;;5071522;28;20211;-64
2023/12/10 05:27:07;;;;;;;12.20;11.70;;;10.80;99.90;;;;;;5072474;28;20223;-63
2023/12/10 05:29:33;;;;;;;11.87;11.47;;;10.80;99.90;;;;;;5074765;28;20211;-62
2023/12/10 05:32:00;;;;;;;12.17;11.67;;;10.80;99.90;;;;;;5071644;28;20207;-62
2023/12/10 05:34:28;;;;;;;12.00;11.50;;;10.80;99.90;;;;;;5071558;28;20302;-63
2023/12/10 05:36:55;;;;;;;12.00;11.50;;;10.80;99.90;;;;;;5071291;28;20239;-63
2023/12/10 05:39:22;;;;;;;13.10;12.60;;;10.80;99.90;;;;;;5071720;28;20298;-64
2023/12/10 05:41:49;;;;;;;12.90;12.40;;;10.80;99.90;;;;;;5071074;28;20212;-62
2023/12/10 05:44:16;;;;;;;12.03;11.53;;;10.80;99.90;;;;;;5069778;28;20219;-63
2023/12/10 05:46:42;;;;;;;11.43;11.03;;;10.90;99.90;;;;;;5070216;28;20223;-63
2023/12/10 05:49:09;;;;;;;12.80;12.23;;;10.90;99.90;;;;;;5070123;28;20658;-64
2023/12/10 05:51:37;;;;;;;11.97;11.47;;;10.90;99.90;;;;;;5072205;28;20221;-62
2023/12/10 05:54:04;;;;;;;12.93;12.33;;;10.80;99.90;;;;;;5074045;28;20242;-64
2023/12/10 05:56:31;;;;;;;12.20;11.70;;;10.80;99.90;;;;;;5073636;28;20602;-68
2023/12/10 05:59:00;;;;;;;14.17;13.47;;;10.80;99.90;;;;;;5073529;28;20207;-67
2023/12/10 06:01:27;;;;;;;11.90;11.40;;;10.90;99.90;;;;;;5073545;28;20290;-68
2023/12/10 06:03:54;;;;;;;12.17;11.67;;;10.90;99.90;;;;;;5069161;28;20217;-66
2023/12/10 06:06:21;;;;;;;11.77;11.30;;;10.90;99.90;;;;;;5073579;28;20258;-66
2023/12/10 06:08:49;;;;;;;14.70;14.10;;;10.90;99.90;;;;;;5073935;28;20207;-65
2023/12/10 06:11:16;;;;;;;14.73;14.13;;;10.90;99.90;;;;;;5073748;28;20211;-66
2023/12/10 06:13:43;;;;;;;13.33;12.77;;;10.90;99.90;;;;;;5073749;28;20207;-65
2023/12/10 06:16:10;;;;;;;12.57;12.07;;;10.90;99.90;;;;;;5073322;28;20237;-67
2023/12/10 06:18:37;;;;;;;13.27;12.73;;;10.90;99.90;;;;;;5073123;28;20241;-65
2023/12/10 06:21:04;;;;;;;13.17;12.67;;;10.90;99.90;;;;;;5073200;28;20211;-67
2023/12/10 06:23:31;;;;;;;13.93;13.43;;;10.90;99.90;;;;;;5073376;28;20246;-68
2023/12/10 06:25:59;;;;;;;13.07;12.53;;;10.90;99.90;;;;;;5073162;28;20252;-66
2023/12/10 06:28:26;;;;;;;14.87;14.27;;;10.90;99.90;;;;;;5073102;28;20212;-68
2023/12/10 06:30:53;;;;;;;13.20;12.60;;;10.90;99.90;;;;;;5073239;28;20215;-66
2023/12/10 06:33:20;;;;;;;14.17;13.57;;;10.90;99.90;;;;;;5072908;28;20276;-66
2023/12/10 06:35:46;;;;;;;13.37;12.83;;;10.80;99.90;;;;;;5073044;28;20210;-66
2023/12/10 06:38:13;;;;;;;13.67;13.07;;;10.80;99.90;;;;;;5072785;28;20314;-66
2023/12/10 06:40:40;;;;;;;13.53;12.97;;;10.90;99.90;;;;;;5072753;28;20218;-67
2023/12/10 06:43:08;;;;;;;13.87;13.30;;;10.80;99.90;;;;;;5072650;28;20218;-65
2023/12/10 06:45:35;;;;;;;13.97;13.30;;;10.80;99.90;;;;;;5073028;28;20207;-65
2023/12/10 06:48:02;;;;;;;13.13;12.63;;;10.90;99.90;;;;;;5074100;28;20226;-64
2023/12/10 06:50:30;;;;;;;13.67;13.07;;;10.80;99.90;;;;;;5083096;28;20630;-66
2023/12/10 06:52:57;;;;;;;13.47;12.87;;;10.90;99.90;;;;;;5073145;28;20229;-66
2023/12/10 06:55:24;;;;;;;12.77;12.27;;;10.80;99.90;;;;;;5072744;28;20644;-66
2023/12/10 06:57:51;;;;;;;13.93;13.37;;;10.90;99.90;;;;;;5072712;28;20235;-65
2023/12/10 07:00:19;;;;;;;12.23;11.73;;;10.80;99.90;;;;;;5072660;28;20209;-67
2023/12/10 07:02:46;;;;;;;12.47;11.97;;;10.80;99.90;;;;;;5074147;28;20753;-65
2023/12/10 07:05:13;;;;;;;13.40;12.90;;;10.80;99.90;;;;;;5074042;28;20207;-64
2023/12/10 07:07:40;;;;;;;14.30;13.70;;;10.80;99.90;;;;;;5073266;28;20226;-66
2023/12/10 07:10:08;;;;;;;13.33;12.80;;;10.80;99.90;;;;;;5073472;28;20222;-64
2023/12/10 07:12:35;;;;;;;13.57;12.97;;;10.80;99.90;;;;;;5073007;28;20222;-67
2023/12/10 07:15:01;;;;;;;12.53;11.93;;;10.80;99.90;;;;;;5072250;28;20211;-65
2023/12/10 07:17:30;;;;;;;12.77;12.27;;;10.80;99.90;;;;;;5072051;28;20235;-66
2023/12/10 07:19:57;;;;;;;12.53;12.03;;;10.80;99.90;;;;;;5072258;28;20213;-67
2023/12/10 07:22:23;;;;;;;13.37;12.80;;;10.80;99.90;;;;;;5072248;28;20233;-67
2023/12/10 07:24:50;;;;;;;14.10;13.53;;;10.80;99.90;;;;;;5072044;28;20733;-67
2023/12/10 07:27:17;;;;;;;13.83;13.27;;;10.80;99.90;;;;;;5072046;28;20230;-66
2023/12/10 07:29:44;;;;;;;14.03;13.53;;;10.80;99.90;;;;;;5071449;28;20203;-67
2023/12/10 07:32:11;;;;;;;13.33;12.80;;;10.80;99.90;;;;;;5072116;28;20294;-65
2023/12/10 07:34:39;;;;;;;13.57;13.07;;;10.80;99.90;;;;;;5072557;28;20235;-65
2023/12/10 07:37:06;;;;;;;12.80;12.20;;;10.80;99.90;;;;;;5072064;28;20238;-65
2023/12/10 07:39:32;;;;;;;14.07;13.47;;;10.80;99.90;;;;;;5071858;28;20286;-66
2023/12/10 07:42:01;;;;;;;13.43;12.87;;;10.80;99.90;;;;;;5071846;28;20203;-66
2023/12/10 07:44:28;;;;;;;14.57;13.97;;;10.80;99.90;;;;;;5071865;28;20214;-67
2023/12/10 07:46:56;;;;;;;13.87;13.37;;;10.80;99.90;;;;;;5071762;28;20321;-66
2023/12/10 07:49:23;;;;;;;14.00;13.40;;;10.90;99.90;;;;;;5072111;28;20211;-66
2023/12/10 07:51:51;;;;;;;13.43;12.83;;;10.80;99.90;;;;;;5071848;28;20215;-68
2023/12/10 07:54:18;;;;;;;13.67;13.07;;;10.90;99.90;;;;;;5071913;28;20204;-64
2023/12/10 07:56:45;;;;;;;13.70;13.20;;;10.80;99.90;;;;;;5071878;28;20728;-66
2023/12/10 07:59:12;;;;;;;14.33;13.73;;;10.80;99.90;;;;;;5071264;28;20723;-63
2023/12/10 08:01:41;;;;;;;13.37;12.87;;;10.80;99.90;;;;;;5071360;28;20265;-65
2023/12/10 08:04:07;;;;;;;15.17;14.57;;;10.90;99.90;;;;;;5071664;28;20229;-65
2023/12/10 08:06:34;;;;;;;13.20;12.70;;;10.90;99.90;;;;;;5072290;28;20318;-64
2023/12/10 08:09:04;;;;;;;13.10;12.60;;;10.90;99.90;;;;;;5071982;28;20589;-65
2023/12/10 08:11:31;;;;;;;12.90;12.37;;;10.90;99.90;;;;;;5071540;28;20211;-66
2023/12/10 08:13:58;;;;;;;13.20;12.70;;;10.80;99.90;;;;;;5071581;28;20212;-65
2023/12/10 08:16:25;;;;;;;12.50;12.00;;;10.90;99.90;;;;;;5071727;28;20231;-65
2023/12/10 08:18:52;;;;;;;13.50;12.93;;;10.90;99.90;;;;;;5071404;28;20238;-66
2023/12/10 08:21:19;;;;;;;13.83;13.33;;;10.90;99.90;;;;;;5070787;28;20207;-67
2023/12/10 08:23:45;;;;;;;14.20;13.60;;;10.90;99.90;;;;;;5070984;28;20298;-65
2023/12/10 08:26:13;;;;;;;13.70;13.20;;;10.90;99.90;;;;;;5070794;28;20231;-65
2023/12/10 08:28:40;;;;;;;13.63;13.13;;;11.00;99.90;;;;;;5074726;28;20209;-66
2023/12/10 08:31:07;;;;;;;14.00;13.40;;;10.90;99.90;;;;;;5077162;28;20541;-66
2023/12/10 08:33:34;;;;;;;14.40;13.80;;;10.90;99.90;;;;;;5071056;28;20294;-66
2023/12/10 08:36:01;;;;;;;13.17;12.67;;;10.90;99.90;;;;;;5070829;28;20213;-65
2023/12/10 08:38:28;;;;;;;13.03;12.53;;;10.90;99.90;;;;;;5070370;28;20689;-65
2023/12/10 08:40:55;;;;;;;13.73;13.13;;;11.00;99.90;;;;;;5070819;28;20259;-65
2023/12/10 08:43:23;;;;;;;14.67;14.07;;;11.00;99.90;;;;;;5070908;28;20583;-65
2023/12/10 08:45:50;;;;;;;13.17;12.57;;;10.90;99.90;;;;;;5070531;28;20207;-65
2023/12/10 08:48:17;;;;;;;13.63;13.03;;;11.00;99.90;;;;;;5070583;28;20211;-64
2023/12/10 08:50:44;;;;;;;13.63;13.03;;;11.00;99.90;;;;;;5070383;28;20595;-65
2023/12/10 08:53:10;;;;;;;13.43;12.83;;;11.00;99.90;;;;;;5070472;28;20291;-66
2023/12/10 08:55:37;;;;;;;12.67;12.17;;;11.00;99.90;;;;;;5070646;28;20215;-66
2023/12/10 08:58:04;;;;;;;12.67;12.17;;;11.00;99.90;;;;;;5070770;28;20263;-65
2023/12/10 09:00:32;;;;;;;12.77;12.17;;;10.90;99.90;;;;;;5070599;28;20207;-65
2023/12/10 09:02:59;;;;;;;11.80;11.30;;;10.80;99.90;;;;;;5071226;28;20215;-69
2023/12/10 09:05:26;;;;;;;12.60;12.10;;;10.80;99.90;;;;;;5073957;28;20242;-66
2023/12/10 09:07:53;;;;;;;12.67;12.13;;;10.80;99.90;;;;;;5071685;28;20305;-66
2023/12/10 09:10:19;;;;;;;11.90;11.50;;;10.80;99.90;;;;;;5070714;28;20294;-66
2023/12/10 09:12:46;;;;;;;13.00;12.40;;;10.80;99.90;;;;;;5070516;28;20680;-66
2023/12/10 09:15:13;;;;;;;11.57;11.10;;;10.80;99.90;;;;;;5070574;28;20289;-66
2023/12/10 09:17:42;;;;;;;11.80;11.40;;;10.80;99.90;;;;;;5070707;28;20238;-66
2023/12/10 09:20:09;;;;;;;12.83;12.23;;;10.80;99.90;;;;;;5070492;28;20619;-67
2023/12/10 09:22:36;;;;;;;13.50;12.90;;;10.90;99.90;;;;;;5070417;28;20207;-66
2023/12/10 09:25:03;;;;;;;12.60;12.00;;;10.90;99.90;;;;;;5070278;28;20670;-66
2023/12/10 09:27:30;;;;;;;12.17;11.67;;;10.90;99.90;;;;;;5074218;28;20254;-65
2023/12/10 09:29:57;;;;;;;12.67;12.17;;;10.90;99.90;;;;;;5074360;28;20203;-66
2023/12/10 09:32:27;;;;;;;12.07;11.57;;;10.90;99.90;;;;;;5074194;28;20215;-65
2023/12/10 09:34:55;;;;;;;11.80;11.30;;;10.90;99.90;;;;;;5074143;28;20297;-67
2023/12/10 09:37:22;;;;;;;11.07;10.67;;;10.90;99.90;;;;;;5073947;28;20239;-68
2023/12/10 09:39:48;;;;;;;11.83;11.40;;;10.90;99.90;;;;;;5074054;28;20237;-66
2023/12/10 09:42:15;;;;;;;12.30;11.80;;;10.90;99.90;;;;;;5071693;28;20218;-67
2023/12/10 09:44:42;;;;;;;12.47;11.97;;;11.00;99.90;;;;;;5073551;28;20737;-65
2023/12/10 09:47:10;;;;;;;12.70;12.20;;;11.00;99.90;;;;;;5073371;28;20246;-66
2023/12/10 09:49:39;;;;;;;12.53;12.03;;;11.00;99.90;;;;;;5073869;28;20203;-66
2023/12/10 09:52:08;;;;;;;12.30;11.80;;;11.10;99.90;;;;;;5077597;28;20220;-65
2023/12/10 09:54:37;;;;;;;13.03;12.53;;;11.10;99.90;;;;;;5077006;28;20315;-67
2023/12/10 09:57:04;;;;;;;12.77;12.23;;;11.10;99.90;;;;;;5080451;28;20225;-67
2023/12/10 09:59:31;;;;;;;13.27;12.77;;;11.20;99.90;;;;;;5073508;28;20223;-64
2023/12/10 10:01:58;;;;;;;12.97;12.47;;;11.20;99.90;;;;;;5078456;28;20217;-65
2023/12/10 10:04:25;;;;;;;12.90;12.40;;;11.30;99.90;;;;;;5073551;28;20203;-68
2023/12/10 10:06:52;;;;;;;12.57;12.07;;;11.40;99.90;;;;;;5073809;28;20266;-67
2023/12/10 10:09:20;;;;;;;13.00;12.50;;;11.40;99.90;;;;;;5080025;28;20677;-65
2023/12/10 10:11:48;;;;;;;13.27;12.67;;;11.40;99.90;;;;;;5079716;28;20213;-68
2023/12/10 10:14:16;;;;;;;13.43;12.93;;;11.40;99.90;;;;;;5073389;28;20294;-66
2023/12/10 10:16:48;;;;;;;13.50;12.90;;;11.40;99.90;;;;;;5077092;28;20219;-67
2023/12/10 10:19:16;;;;;;;13.63;13.03;;;11.40;99.90;;;;;;5078798;28;20222;-66
2023/12/10 10:21:43;;;;;;;12.80;12.30;;;11.40;99.90;;;;;;5071888;28;20825;-66
2023/12/10 10:24:10;;;;;;;13.63;13.03;;;11.50;99.90;;;;;;5075552;28;20200;-66
2023/12/10 10:26:39;;;;;;;13.47;12.87;;;11.50;99.90;;;;;;5073010;28;20257;-66
2023/12/10 10:29:07;;;;;;;13.20;12.70;;;11.50;99.90;;;;;;5074015;28;20662;-66
2023/12/10 10:31:35;;;;;;;13.20;12.67;;;11.50;99.90;;;;;;5077789;28;20229;-63
2023/12/10 10:34:03;;;;;;;13.87;13.30;;;11.50;99.90;;;;;;5079112;28;20227;-64
2023/12/10 10:36:31;;;;;;;12.97;12.47;;;11.60;99.90;;;;;;5076597;28;20314;-63
2023/12/10 10:38:58;;;;;;;13.50;12.90;;;11.60;99.90;;;;;;5077732;28;20254;-63
2023/12/10 10:41:26;;;;;;;13.43;12.90;;;11.60;99.90;;;;;;5077915;28;20204;-65
2023/12/10 10:43:56;;;;;;;13.07;12.57;;;11.60;99.90;;;;;;5076558;28;20252;-63
2023/12/10 10:46:24;;;;;;;13.33;12.83;;;11.60;99.90;;;;;;5073349;28;20778;-64
2023/12/10 10:48:52;;;;;;;12.90;12.40;;;11.60;99.90;;;;;;5070639;28;20207;-63
2023/12/10 10:51:23;;;;;;;12.00;11.60;;;11.60;99.90;;;;;;5071403;28;20215;-63
2023/12/10 10:53:50;;;;;;;12.70;12.20;;;11.60;99.90;;;;;;5071004;28;20210;-64
2023/12/10 10:56:17;;;;;;;12.43;11.93;;;11.60;99.90;;;;;;5070470;28;20227;-63
2023/12/10 10:58:44;;;;;;;12.53;12.03;;;11.70;99.90;;;;;;5069572;28;20318;-63
2023/12/10 11:01:41;;;;;;;12.33;11.83;;;11.60;99.90;;;;;;5067418;28;20282;-61
2023/12/10 11:04:12;;;;;;;13.37;12.80;;;11.70;99.90;;;;;;5071440;28;20242;-62
2023/12/10 11:06:40;;;;;;;12.40;11.83;;;11.70;99.90;;;;;;5071988;28;20223;-62
2023/12/10 11:09:07;;;;;;;13.60;13.00;;;11.80;99.90;;;;;;5072454;28;20191;-63
2023/12/10 11:11:40;;;;;;;12.90;12.30;;;11.90;99.90;;;;;;5071914;28;20213;-62
2023/12/10 11:14:19;;;;;;;12.73;12.23;;;11.90;99.90;;;;;;5072345;28;20203;-63
2023/12/10 11:16:50;;;;;;;12.30;11.80;;;11.90;99.90;;;;;;5069315;28;20293;-63
2023/12/10 11:19:21;;;;;;;13.20;12.70;;;11.90;99.90;;;;;;5072297;28;20223;-62
2023/12/10 11:21:48;;;;;;;13.43;12.93;;;11.90;99.90;;;;;;5071937;28;20210;-62
2023/12/10 11:24:15;;;;;;;12.67;12.17;;;11.90;99.90;;;;;;5071736;28;20203;-61
2023/12/10 11:26:42;;;;;;;12.40;11.80;;;11.90;99.90;;;;;;5072338;28;20222;-62
2023/12/10 11:29:09;;;;;;;11.87;11.47;;;11.90;99.90;;;;;;5072589;28;20857;-62
2023/12/10 11:31:36;;;;;;;12.13;11.63;;;11.90;99.90;;;;;;5073216;28;20534;-62
2023/12/10 11:34:05;;;;;;;11.67;11.27;;;12.00;99.90;;;;;;5076022;28;20203;-62
2023/12/10 11:36:32;;;;;;;11.97;11.53;;;12.10;99.90;;;;;;5074703;28;20611;-64
2023/12/10 11:38:58;;;;;;;12.20;11.70;;;12.10;99.90;;;;;;5073089;28;20215;-62
2023/12/10 11:41:26;;;;;;;12.00;11.50;;;12.10;99.90;;;;;;5072224;28;20203;-62
2023/12/10 11:43:54;;;;;;;12.33;11.83;;;12.00;99.90;;;;;;5072346;28;20666;-62
2023/12/10 11:46:21;;;;;;;11.70;11.30;;;12.00;99.90;;;;;;5074304;28;20608;-61
2023/12/10 11:48:48;;;;;;;11.83;11.43;;;12.00;99.90;;;;;;5073646;28;20234;-62
2023/12/10 11:51:18;;;;;;;12.57;12.07;;;12.10;99.90;;;;;;5078534;28;20211;-62
2023/12/10 11:53:46;;;;;;;11.93;11.53;;;12.10;99.90;;;;;;5084636;28;20234;-66
2023/12/10 11:56:14;;;;;;;11.70;11.30;;;12.10;99.90;;;;;;5080454;28;20258;-66
2023/12/10 11:58:45;;;;;;;11.93;11.53;;;12.10;99.90;;;;;;5072953;28;20219;-65
2023/12/10 12:01:11;;;;;;;12.00;11.60;;;12.10;99.90;;;;;;5070685;28;20199;-67
2023/12/10 12:03:38;;;;;;;12.10;11.60;;;12.10;99.90;;;;;;5073065;28;20298;-65
2023/12/10 12:06:06;;;;;;;11.70;11.30;;;12.20;99.90;;;;;;5072629;28;20345;-65
2023/12/10 12:08:34;;;;;;;11.40;11.00;;;12.20;99.90;;;;;;5073214;28;20199;-65
2023/12/10 12:11:01;;;;;;;11.87;11.37;;;12.20;99.90;;;;;;5073260;28;20211;-65
2023/12/10 12:13:29;;;;;;;11.90;11.40;;;12.30;99.90;;;;;;5079750;28;20207;-65
2023/12/10 12:15:56;;;;;;;11.40;11.00;;;12.30;99.90;;;;;;5086460;28;20198;-66
2023/12/10 12:18:24;;;;;;;11.40;10.97;;;12.30;99.90;;;;;;5083513;28;20227;-66
2023/12/10 12:20:51;;;;;;;12.17;11.77;;;12.30;99.90;;;;;;5078131;28;20207;-68
2023/12/10 12:23:18;;;;;;;11.90;11.50;;;12.30;99.90;;;;;;5077842;28;20327;-66
2023/12/10 12:25:46;;;;;;;12.17;11.73;;;12.30;99.90;;;;;;5076482;28;20203;-67
2023/12/10 12:28:13;;;;;;;12.27;11.77;;;12.40;99.90;;;;;;5070953;28;20217;-64